Verhnij Ufalej, Russia
Current Conditions -  °F | °C
As of 1:30 PM on Friday 31 Oct 2014 (Local Time) from USSS Reporting Station
Overcast Overcast  
Wind Chill: 32°   Ceiling: 1600
Heat Index: 39°   Visibility: 6mi
Dew Point: 37°   Wind: 11mph
Humidity: 93%   Direction: 200°SSW
Pressure: 30"   Gusts: NA
Location:  56.06°N, 60.23°E
Report Text: USSS 310730Z 20005MPS 9999 BKN016 OVC067 04/03 Q1016 7629//40NOSIG RMK QFE742
Loading
Personal Weather Stations






























Interactive Weather Map
Tropical Storm Tracking
New forecast layout! Learn more

10-Day Weather Forecast

Advertisements
Track Severe Weather on mobile